createdAt,value
2023-03-12T06:03:00.094Z,100789.94
2023-03-12T06:05:36.970Z,100788.03
2023-03-12T06:08:08.761Z,100792.59
2023-03-12T06:10:48.066Z,100795.44
2023-03-12T06:13:25.035Z,100789.19
2023-03-12T06:15:55.048Z,100801.69
2023-03-12T06:18:33.984Z,100797.75
2023-03-12T06:21:15.709Z,100798.59
2023-03-12T06:23:53.046Z,100795.22
2023-03-12T06:26:25.261Z,100779.72
2023-03-12T06:29:03.035Z,100788.25
2023-03-12T06:31:40.052Z,100792.19
2023-03-12T06:34:13.259Z,100785.00
2023-03-12T06:36:50.078Z,100780.81
2023-03-12T06:39:20.070Z,100770.97
2023-03-12T06:41:57.225Z,100770.03
2023-03-12T06:44:34.080Z,100774.78
2023-03-12T06:47:04.197Z,100764.00
2023-03-12T06:49:44.079Z,100762.66
2023-03-12T06:52:14.230Z,100752.50
2023-03-12T06:54:51.169Z,100748.47
2023-03-12T06:57:28.092Z,100744.06
2023-03-12T06:59:58.233Z,100748.91
2023-03-12T07:02:35.205Z,100739.78
2023-03-12T07:05:16.158Z,100738.94
2023-03-12T07:07:46.232Z,100737.59
2023-03-12T07:10:23.110Z,100748.66
2023-03-12T07:13:00.110Z,100743.63
2023-03-12T07:15:30.189Z,100735.44
2023-03-12T07:18:10.072Z,100746.13
2023-03-12T07:20:54.126Z,100749.16
2023-03-12T07:23:24.938Z,100747.25
2023-03-12T07:26:02.097Z,100762.97
2023-03-12T07:28:39.087Z,100768.16
2023-03-12T07:31:09.579Z,100763.59
2023-03-12T07:33:48.278Z,100768.59
2023-03-12T07:36:21.053Z,100766.94
2023-03-12T07:39:00.119Z,100765.91
2023-03-12T07:41:30.180Z,100766.50
2023-03-12T07:44:07.145Z,100766.50
2023-03-12T07:46:37.439Z,100765.81
2023-03-12T07:49:14.143Z,100762.50
2023-03-12T07:51:53.201Z,100758.06
2023-03-12T07:54:25.739Z,100767.31
2023-03-12T07:57:02.375Z,100754.38
2023-03-12T07:59:32.495Z,100755.47
2023-03-12T08:02:09.337Z,100761.00
2023-03-12T08:04:46.164Z,100756.31
2023-03-12T08:07:19.129Z,100758.72
2023-03-12T08:09:56.196Z,100757.31
2023-03-12T08:12:33.160Z,100757.78
2023-03-12T08:15:03.888Z,100752.97
2023-03-12T08:17:41.115Z,100759.59
2023-03-12T08:20:20.188Z,100753.69
2023-03-12T08:22:52.856Z,100751.56
2023-03-12T08:25:31.199Z,100762.13
2023-03-12T08:28:01.356Z,100761.91
2023-03-12T08:30:38.133Z,100756.84
2023-03-12T08:33:14.236Z,100768.97
2023-03-12T08:35:44.356Z,100773.19
2023-03-12T08:38:23.159Z,100767.41
2023-03-12T08:41:06.222Z,100779.66
2023-03-12T08:43:36.502Z,100771.75
2023-03-12T08:46:14.375Z,100765.72
2023-03-12T08:48:44.612Z,100772.56
2023-03-12T08:51:21.285Z,100769.06
2023-03-12T08:53:53.872Z,100770.34
2023-03-12T08:56:30.217Z,100775.97
2023-03-12T08:59:09.939Z,100771.16
2023-03-12T09:01:43.631Z,100778.47
2023-03-12T09:04:20.257Z,100775.06
2023-03-12T09:06:50.310Z,100775.66
2023-03-12T09:09:29.213Z,100768.16
2023-03-12T09:11:59.526Z,100762.34
2023-03-12T09:15:02.361Z,100757.25
2023-03-12T09:17:33.280Z,100764.94
2023-03-12T09:20:07.004Z,100750.78
2023-03-12T09:22:44.234Z,100743.03
2023-03-12T09:25:17.855Z,100765.50
2023-03-12T09:27:57.274Z,100765.03
2023-03-12T09:30:36.304Z,100755.72
2023-03-12T09:33:06.540Z,100762.88
2023-03-12T09:35:43.286Z,100766.56
2023-03-12T09:38:24.286Z,100766.06
2023-03-12T09:40:57.668Z,100765.97
2023-03-12T09:43:41.283Z,100764.19
2023-03-12T09:46:24.316Z,100767.03
2023-03-12T09:48:59.665Z,100771.50
2023-03-12T09:51:43.260Z,100773.19
2023-03-12T09:54:34.291Z,100777.41
2023-03-12T09:57:14.547Z,100779.50
2023-03-12T09:59:51.378Z,100776.72
2023-03-12T10:02:49.553Z,100779.13
2023-03-12T10:05:35.260Z,100777.72
2023-03-12T10:08:24.856Z,100780.81
2023-03-12T10:11:08.274Z,100776.91
2023-03-12T10:14:09.220Z,100775.09
2023-03-12T10:17:04.361Z,100767.56
2023-03-12T10:20:01.273Z,100775.38
2023-03-12T10:22:49.520Z,100772.44
2023-03-12T10:25:37.335Z,100761.94
2023-03-12T10:28:20.086Z,100781.00
2023-03-12T10:31:04.312Z,100774.13
2023-03-12T10:33:46.036Z,100775.53
2023-03-12T10:36:28.351Z,100774.38
2023-03-12T10:39:05.321Z,100774.75
2023-03-12T10:41:36.248Z,100772.50
2023-03-12T10:44:18.323Z,100769.00
2023-03-12T10:47:28.500Z,100778.53
2023-03-12T10:50:20.407Z,100777.41
2023-03-12T10:52:52.938Z,100779.91
2023-03-12T10:55:36.474Z,100780.72
2023-03-12T10:58:06.616Z,100781.16
2023-03-12T11:00:43.316Z,100779.59
2023-03-12T11:03:31.389Z,100782.09
2023-03-12T11:06:04.318Z,100777.03
2023-03-12T11:08:43.363Z,100784.44
2023-03-12T11:11:13.861Z,100787.34
2023-03-12T11:13:51.437Z,100795.88
2023-03-12T11:16:32.346Z,100800.41
2023-03-12T11:19:14.345Z,100797.72
2023-03-12T11:22:01.642Z,100803.59
2023-03-12T11:24:39.439Z,100801.44
2023-03-12T11:27:21.359Z,100810.13
2023-03-12T11:29:59.437Z,100807.16
2023-03-12T11:32:36.156Z,100800.41
2023-03-12T11:35:20.439Z,100802.31
2023-03-12T11:38:03.924Z,100797.28
2023-03-12T11:41:00.434Z,100801.78
2023-03-12T11:43:45.526Z,100794.72
2023-03-12T11:46:36.410Z,100787.72
2023-03-12T11:49:26.252Z,100789.63
2023-03-12T11:52:11.388Z,100790.06
2023-03-12T11:55:24.259Z,100774.28
2023-03-12T11:58:22.428Z,100759.72
2023-03-12T12:01:00.570Z,100759.72
2023-03-12T12:04:13.454Z,100753.69
2023-03-12T12:07:05.472Z,100751.34
2023-03-12T12:09:47.744Z,100756.38
2023-03-12T12:12:47.468Z,100759.97
2023-03-12T12:15:29.781Z,100749.78
2023-03-12T12:18:18.486Z,100754.19
2023-03-12T12:20:58.659Z,100745.38
2023-03-12T12:23:48.545Z,100736.22
2023-03-12T12:26:29.002Z,100741.91
2023-03-12T12:29:28.452Z,100739.38
2023-03-12T12:32:00.473Z,100747.63
2023-03-12T12:35:02.585Z,100762.69
2023-03-12T12:37:46.472Z,100759.16
2023-03-12T12:40:32.491Z,100760.88
2023-03-12T12:43:19.480Z,100747.38
2023-03-12T12:45:59.643Z,100741.72
2023-03-12T12:48:35.550Z,100734.56
2023-03-12T12:51:14.516Z,100733.44
2023-03-12T12:53:54.048Z,100726.78
2023-03-12T12:56:38.521Z,100724.31
2023-03-12T12:59:37.839Z,100711.25
2023-03-12T13:02:26.517Z,100713.44
2023-03-12T13:05:01.104Z,100709.41
2023-03-12T13:07:44.564Z,100710.75
2023-03-12T13:10:57.317Z,100723.44
2023-03-12T13:13:43.629Z,100714.94
2023-03-12T13:16:34.236Z,100715.75
2023-03-12T13:19:29.604Z,100710.41
2023-03-12T13:22:15.546Z,100721.13
2023-03-12T13:25:00.551Z,100718.59
2023-03-12T13:27:41.580Z,100718.44
2023-03-12T13:30:52.178Z,100717.13
2023-03-12T13:33:51.600Z,100722.50
2023-03-12T13:36:28.603Z,100713.25
2023-03-12T13:39:08.587Z,100723.81
2023-03-12T13:41:40.765Z,100728.69
2023-03-12T13:44:42.587Z,100725.50
2023-03-12T13:47:29.305Z,100712.19
2023-03-12T13:50:13.643Z,100709.13
2023-03-12T13:52:50.469Z,100716.66
2023-03-12T13:55:34.811Z,100721.00
2023-03-12T13:58:12.478Z,100718.19
